createdAt,value
2023-03-05T00:00:54.031Z,99759.47
2023-03-05T00:01:56.304Z,99760.31
2023-03-05T00:02:58.651Z,99750.72
2023-03-05T00:04:02.171Z,99757.63
2023-03-05T00:05:04.934Z,99749.75
2023-03-05T00:06:08.244Z,99755.84
2023-03-05T00:07:12.319Z,99753.25
2023-03-05T00:08:14.595Z,99750.72
2023-03-05T00:09:17.082Z,99758.53
2023-03-05T00:10:19.728Z,99748.13
2023-03-05T00:11:22.610Z,99754.19
2023-03-05T00:12:24.851Z,99746.34
2023-03-05T00:13:27.188Z,99749.84
2023-03-05T00:14:29.343Z,99755.00
2023-03-05T00:15:31.661Z,99747.97
2023-03-05T00:16:34.151Z,99754.88
2023-03-05T00:17:36.417Z,99761.91
2023-03-05T00:18:39.197Z,99751.38
2023-03-05T00:19:41.391Z,99750.44
2023-03-05T00:20:43.616Z,99754.66
2023-03-05T00:21:46.236Z,99750.44
2023-03-05T00:22:48.444Z,99754.75
2023-03-05T00:23:52.278Z,99752.19
2023-03-05T00:24:54.521Z,99749.56
2023-03-05T00:25:56.733Z,99750.34
2023-03-05T00:26:59.166Z,99745.16
2023-03-05T00:28:01.419Z,99746.06
2023-03-05T00:29:03.952Z,99748.59
2023-03-05T00:30:06.978Z,99747.88
2023-03-05T00:31:09.395Z,99747.88
2023-03-05T00:32:11.691Z,99744.47
2023-03-05T00:33:14.131Z,99739.06
2023-03-05T00:34:18.866Z,99749.44
2023-03-05T00:35:21.092Z,99746.88
2023-03-05T00:36:25.073Z,99739.34
2023-03-05T00:37:27.286Z,99729.91
2023-03-05T00:38:30.339Z,99736.78
2023-03-05T00:39:32.601Z,99739.38
2023-03-05T00:40:40.194Z,99734.97
2023-03-05T00:41:42.479Z,99742.66
2023-03-05T00:42:44.834Z,99739.19
2023-03-05T00:43:47.803Z,99734.16
2023-03-05T00:44:50.005Z,99736.59
2023-03-05T00:45:52.166Z,99733.06
2023-03-05T00:46:54.486Z,99738.31
2023-03-05T00:47:56.899Z,99732.31
2023-03-05T00:48:59.161Z,99740.91
2023-03-05T00:50:01.894Z,99739.19
2023-03-05T00:51:04.337Z,99730.56
2023-03-05T00:52:06.569Z,99731.38
2023-03-05T00:53:08.754Z,99731.41
2023-03-05T00:54:11.017Z,99727.13
2023-03-05T00:55:13.218Z,99722.69
2023-03-05T00:56:15.814Z,99725.34
2023-03-05T00:57:18.261Z,99730.59
2023-03-05T00:58:20.469Z,99725.41
2023-03-05T00:59:22.696Z,99714.22
2023-03-05T01:00:25.027Z,99723.78
2023-03-05T01:01:28.517Z,99724.59
2023-03-05T01:02:33.808Z,99720.31
2023-03-05T01:03:37.102Z,99721.03
2023-03-05T01:04:39.411Z,99720.94
2023-03-05T01:05:41.806Z,99719.16
2023-03-05T01:06:46.164Z,99720.00
2023-03-05T01:07:52.932Z,99722.63
2023-03-05T01:08:56.503Z,99718.28
2023-03-05T01:09:59.231Z,99717.47
2023-03-05T01:11:02.248Z,99713.88
2023-03-05T01:12:04.817Z,99712.13
2023-03-05T01:13:07.074Z,99705.16
2023-03-05T01:14:09.361Z,99712.13
2023-03-05T01:15:11.703Z,99712.28
2023-03-05T01:16:14.208Z,99710.47
2023-03-05T01:17:16.527Z,99700.09
2023-03-05T01:18:20.119Z,99705.34
2023-03-05T01:19:22.312Z,99705.44
2023-03-05T01:20:24.564Z,99700.25
2023-03-05T01:21:26.848Z,99701.13
2023-03-05T01:22:29.914Z,99698.72
2023-03-05T01:23:34.388Z,99702.13
2023-03-05T01:24:36.609Z,99693.56
2023-03-05T01:25:38.997Z,99686.75
2023-03-05T01:26:41.209Z,99691.06
2023-03-05T01:27:43.818Z,99696.16
2023-03-05T01:28:45.998Z,99688.25
2023-03-05T01:29:48.496Z,99693.38
2023-03-05T01:30:50.921Z,99684.66
2023-03-05T01:31:53.169Z,99696.78
2023-03-05T01:32:56.491Z,99693.25
2023-03-05T01:34:00.153Z,99686.38
2023-03-05T01:35:05.832Z,99684.66
2023-03-05T01:36:15.526Z,99683.13
2023-03-05T01:37:17.792Z,99683.25
2023-03-05T01:38:20.053Z,99682.53
2023-03-05T01:39:22.607Z,99679.03
2023-03-05T01:40:27.929Z,99676.44
2023-03-05T01:41:30.210Z,99683.28
2023-03-05T01:42:32.439Z,99687.56
2023-03-05T01:43:34.817Z,99686.75
2023-03-05T01:44:37.273Z,99682.47
2023-03-05T01:46:13.148Z,99679.06
2023-03-05T01:47:15.446Z,99682.47
2023-03-05T01:48:17.723Z,99678.06
2023-03-05T01:49:28.157Z,99677.25
2023-03-05T01:50:30.648Z,99675.53
2023-03-05T01:51:56.573Z,99671.19
2023-03-05T01:53:02.548Z,99663.38
2023-03-05T01:54:07.385Z,99675.53
2023-03-05T01:55:14.881Z,99674.59
2023-03-05T01:56:17.835Z,99671.06
2023-03-05T01:57:23.290Z,99666.69
2023-03-05T01:58:26.007Z,99670.97
2023-03-05T01:59:28.675Z,99667.59
2023-03-05T02:02:08.469Z,99666.69
2023-03-05T02:03:13.086Z,99664.81
2023-03-05T02:04:18.797Z,99672.66
2023-03-05T02:05:31.064Z,99664.84
2023-03-05T02:06:33.762Z,99664.78
2023-03-05T02:07:37.967Z,99668.44
2023-03-05T02:08:40.510Z,99662.41
2023-03-05T02:09:42.808Z,99663.28
2023-03-05T02:10:48.071Z,99668.41
2023-03-05T02:11:51.584Z,99662.47
2023-03-05T02:13:00.196Z,99655.59
2023-03-05T02:14:04.584Z,99652.94
2023-03-05T02:15:08.134Z,99658.97
2023-03-05T02:16:12.868Z,99658.88
2023-03-05T02:17:15.874Z,99657.97
2023-03-05T02:18:19.780Z,99651.91
2023-03-05T02:19:22.078Z,99656.19
2023-03-05T02:20:27.701Z,99653.53
2023-03-05T02:21:38.956Z,99650.88
2023-03-05T02:22:41.237Z,99657.78
2023-03-05T02:23:43.578Z,99656.84
2023-03-05T02:24:46.247Z,99647.25
2023-03-05T02:25:54.775Z,99649.84
2023-03-05T02:26:57.687Z,99655.84
2023-03-05T02:28:22.374Z,99643.78
2023-03-05T02:29:24.667Z,99644.78
2023-03-05T02:30:27.464Z,99644.84
2023-03-05T02:31:31.073Z,99649.28
2023-03-05T02:32:33.404Z,99649.44
2023-03-05T02:33:35.960Z,99647.59
2023-03-05T02:34:38.274Z,99646.81
2023-03-05T02:35:40.825Z,99646.94
2023-03-05T02:36:43.566Z,99643.53
2023-03-05T02:37:46.897Z,99640.03
2023-03-05T02:38:49.388Z,99648.69
2023-03-05T02:39:51.720Z,99646.13
2023-03-05T02:40:54.120Z,99640.91
2023-03-05T02:41:56.480Z,99643.53
2023-03-05T02:42:59.009Z,99638.31
2023-03-05T02:44:02.146Z,99643.47
2023-03-05T02:45:05.047Z,99633.06
2023-03-05T02:46:07.930Z,99637.34
2023-03-05T02:47:10.298Z,99639.03
2023-03-05T02:48:12.902Z,99634.84
2023-03-05T02:49:15.148Z,99639.16
2023-03-05T02:50:17.837Z,99638.28
2023-03-05T02:51:20.123Z,99628.69
2023-03-05T02:52:23.580Z,99635.63
2023-03-05T02:53:26.851Z,99625.06
2023-03-05T02:54:29.157Z,99629.38
2023-03-05T02:55:31.306Z,99627.66
2023-03-05T02:56:35.309Z,99616.56
2023-03-05T02:57:37.626Z,99626.13
2023-03-05T02:58:39.943Z,99616.69
2023-03-05T02:59:42.411Z,99621.88
2023-03-05T03:00:46.612Z,99622.78
2023-03-05T03:01:48.818Z,99619.31
2023-03-05T03:02:51.132Z,99620.16
2023-03-05T03:03:53.593Z,99616.72
2023-03-05T03:04:56.488Z,99613.19
2023-03-05T03:05:58.864Z,99613.97
2023-03-05T03:07:01.181Z,99605.28
2023-03-05T03:08:03.860Z,99613.91
2023-03-05T03:09:06.104Z,99609.56
2023-03-05T03:10:09.337Z,99615.66
2023-03-05T03:11:13.179Z,99607.81
2023-03-05T03:12:15.552Z,99613.09
2023-03-05T03:13:18.089Z,99607.06
2023-03-05T03:14:20.734Z,99614.03
2023-03-05T03:15:23.082Z,99613.09
2023-03-05T03:16:25.363Z,99612.31
2023-03-05T03:17:27.787Z,99608.00
2023-03-05T03:18:30.073Z,99594.22
2023-03-05T03:19:32.756Z,99602.91
2023-03-05T03:20:39.007Z,99604.59
2023-03-05T03:21:41.269Z,99595.06
2023-03-05T03:22:45.070Z,99605.50
2023-03-05T03:23:47.374Z,99590.91
2023-03-05T03:24:49.553Z,99597.81
2023-03-05T03:25:52.162Z,99596.03
2023-03-05T03:26:54.391Z,99596.00
2023-03-05T03:27:56.822Z,99596.84
2023-03-05T03:28:59.129Z,99593.44
2023-03-05T03:30:04.669Z,99591.63
2023-03-05T03:31:07.140Z,99587.25
2023-03-05T03:32:09.451Z,99592.31
2023-03-05T03:33:11.978Z,99581.84
2023-03-05T03:34:15.794Z,99593.13
2023-03-05T03:35:18.340Z,99580.09
2023-03-05T03:36:20.731Z,99580.09
2023-03-05T03:37:23.063Z,99579.22
2023-03-05T03:38:25.265Z,99572.25
2023-03-05T03:39:27.724Z,99577.50
2023-03-05T03:40:30.397Z,99570.53
2023-03-05T03:41:33.409Z,99572.31
2023-03-05T03:42:35.899Z,99582.69
2023-03-05T03:43:38.265Z,99578.31
2023-03-05T03:44:40.437Z,99574.94
2023-03-05T03:45:44.967Z,99572.38
2023-03-05T03:46:49.146Z,99571.66
2023-03-05T03:47:51.694Z,99576.84
2023-03-05T03:48:53.984Z,99578.66
2023-03-05T03:49:56.718Z,99571.78
2023-03-05T03:50:58.992Z,99571.78
2023-03-05T03:52:01.309Z,99574.38
2023-03-05T03:53:03.524Z,99575.28
2023-03-05T03:54:05.822Z,99573.56
2023-03-05T03:55:08.368Z,99573.56
2023-03-05T03:56:10.682Z,99576.09
2023-03-05T03:57:12.825Z,99570.09
2023-03-05T03:58:15.080Z,99577.09
2023-03-05T03:59:17.268Z,99579.66
2023-03-05T04:00:19.631Z,99571.84
2023-03-05T04:01:21.922Z,99563.97
2023-03-05T04:02:24.243Z,99575.97
2023-03-05T04:03:26.677Z,99568.97
2023-03-05T04:04:30.173Z,99570.66
2023-03-05T04:05:32.677Z,99567.25
2023-03-05T04:06:35.079Z,99574.19
2023-03-05T04:07:37.528Z,99563.84
2023-03-05T04:08:39.816Z,99568.19
2023-03-05T04:09:42.106Z,99565.59
2023-03-05T04:10:44.567Z,99568.25
2023-03-05T04:11:47.132Z,99563.91
2023-03-05T04:12:49.397Z,99568.28
2023-03-05T04:13:52.002Z,99567.50
2023-03-05T04:14:54.744Z,99564.88
2023-03-05T04:15:57.396Z,99564.72
2023-03-05T04:16:59.925Z,99567.31
2023-03-05T04:18:02.367Z,99563.97
2023-03-05T04:19:04.567Z,99557.94
2023-03-05T04:20:10.302Z,99558.88
2023-03-05T04:21:12.750Z,99560.59
2023-03-05T04:22:17.192Z,99552.66
2023-03-05T04:23:20.100Z,99553.63
2023-03-05T04:24:22.325Z,99558.09
2023-03-05T04:25:24.498Z,99561.50
2023-03-05T04:26:26.795Z,99549.31
2023-03-05T04:27:28.965Z,99560.59
2023-03-05T04:28:31.604Z,99554.63
2023-03-05T04:29:34.630Z,99551.91
2023-03-05T04:30:37.064Z,99552.63
2023-03-05T04:31:39.237Z,99546.59
2023-03-05T04:32:41.749Z,99544.03
2023-03-05T04:33:44.133Z,99547.44
2023-03-05T04:34:46.634Z,99545.63
2023-03-05T04:35:48.852Z,99544.78
2023-03-05T04:36:51.104Z,99547.41
2023-03-05T04:37:53.363Z,99548.09
2023-03-05T04:38:55.593Z,99555.19
2023-03-05T04:39:57.842Z,99543.94
2023-03-05T04:41:00.097Z,99548.34
2023-03-05T04:42:02.426Z,99547.44
2023-03-05T04:43:05.311Z,99544.81
2023-03-05T04:44:07.563Z,99546.53
2023-03-05T04:45:10.730Z,99544.03
2023-03-05T04:46:13.087Z,99548.34
2023-03-05T04:47:16.637Z,99546.59
2023-03-05T04:48:18.876Z,99549.13
2023-03-05T04:49:21.112Z,99551.59
2023-03-05T04:50:23.831Z,99550.78
2023-03-05T04:51:26.138Z,99545.63
2023-03-05T04:52:28.281Z,99543.22
2023-03-05T04:53:30.445Z,99550.94
2023-03-05T04:54:33.041Z,99544.94
2023-03-05T04:55:35.188Z,99541.63
2023-03-05T04:56:37.742Z,99549.34
2023-03-05T04:57:40.162Z,99548.53
2023-03-05T04:58:42.293Z,99551.09
2023-03-05T04:59:44.664Z,99539.84
2023-03-05T05:00:46.846Z,99546.75
2023-03-05T05:01:49.097Z,99551.09
2023-03-05T05:02:52.520Z,99546.78
2023-03-05T05:03:54.795Z,99544.84
2023-03-05T05:04:56.997Z,99547.28
2023-03-05T05:06:01.000Z,99535.97
2023-03-05T05:07:03.526Z,99541.16
2023-03-05T05:08:05.691Z,99546.41
2023-03-05T05:09:08.185Z,99541.28
2023-03-05T05:10:11.667Z,99543.03
2023-03-05T05:11:14.642Z,99539.50
2023-03-05T05:12:17.304Z,99536.91
2023-03-05T05:13:19.613Z,99543.88
2023-03-05T05:14:22.251Z,99540.50
2023-03-05T05:15:24.583Z,99541.53
2023-03-05T05:16:26.987Z,99536.34
2023-03-05T05:17:32.846Z,99529.34
2023-03-05T05:18:35.274Z,99544.84
2023-03-05T05:19:37.575Z,99540.50
2023-03-05T05:20:39.782Z,99537.03
2023-03-05T05:21:42.456Z,99535.22
2023-03-05T05:22:44.814Z,99535.22
2023-03-05T05:23:47.211Z,99536.91
2023-03-05T05:24:49.418Z,99535.13
2023-03-05T05:25:58.988Z,99523.94
2023-03-05T05:27:01.187Z,99529.41
2023-03-05T05:28:04.167Z,99531.28
2023-03-05T05:29:06.330Z,99535.69
2023-03-05T05:30:09.007Z,99528.88
2023-03-05T05:31:13.886Z,99542.66
2023-03-05T05:32:17.557Z,99530.47
2023-03-05T05:33:20.532Z,99532.97
2023-03-05T05:34:25.038Z,99538.06
2023-03-05T05:35:27.420Z,99524.09
2023-03-05T05:36:29.674Z,99530.13
2023-03-05T05:37:31.885Z,99523.94
2023-03-05T05:38:35.084Z,99533.47
2023-03-05T05:39:37.554Z,99523.91
2023-03-05T05:40:40.602Z,99523.94
2023-03-05T05:41:42.785Z,99522.22
2023-03-05T05:42:45.290Z,99530.03
2023-03-05T05:43:47.816Z,99530.94
2023-03-05T05:44:50.506Z,99520.56
2023-03-05T05:45:52.825Z,99535.31
2023-03-05T05:46:55.197Z,99517.06
2023-03-05T05:47:57.880Z,99523.13
2023-03-05T05:49:00.136Z,99526.66
2023-03-05T05:50:02.617Z,99520.63
2023-03-05T05:51:10.359Z,99530.34
2023-03-05T05:52:13.416Z,99524.31
2023-03-05T05:53:15.741Z,99526.97
2023-03-05T05:54:18.102Z,99519.28
2023-03-05T05:55:20.335Z,99526.19
2023-03-05T05:56:22.758Z,99526.22
2023-03-05T05:57:25.082Z,99532.28
2023-03-05T05:58:27.271Z,99528.81
2023-03-05T05:59:29.661Z,99531.31
2023-03-05T06:00:31.946Z,99526.88
2023-03-05T06:01:34.903Z,99529.41
2023-03-05T06:02:41.378Z,99532.75
2023-03-05T06:03:43.845Z,99531.16
2023-03-05T06:04:46.163Z,99531.19
2023-03-05T06:05:48.478Z,99524.25
2023-03-05T06:06:50.839Z,99533.78
2023-03-05T06:07:53.012Z,99525.16
2023-03-05T06:08:56.909Z,99527.78
2023-03-05T06:09:59.247Z,99526.13
2023-03-05T06:11:01.571Z,99533.84
2023-03-05T06:12:04.262Z,99530.19
2023-03-05T06:13:06.520Z,99527.44
2023-03-05T06:14:11.379Z,99530.00
2023-03-05T06:15:13.589Z,99521.31
2023-03-05T06:16:24.007Z,99523.03
2023-03-05T06:17:30.718Z,99527.66
2023-03-05T06:18:34.553Z,99534.75
2023-03-05T06:19:36.817Z,99526.13
2023-03-05T06:20:39.102Z,99527.78
2023-03-05T06:21:43.142Z,99527.75
2023-03-05T06:22:45.545Z,99524.31
2023-03-05T06:23:48.408Z,99523.41
2023-03-05T06:24:50.627Z,99525.84
2023-03-05T06:25:53.220Z,99521.47
2023-03-05T06:26:55.718Z,99525.84
2023-03-05T06:27:57.939Z,99527.56
2023-03-05T06:29:00.183Z,99520.75
2023-03-05T06:30:03.053Z,99516.50
2023-03-05T06:31:07.796Z,99523.31
2023-03-05T06:32:10.401Z,99522.38
2023-03-05T06:33:12.699Z,99517.22
2023-03-05T06:34:14.915Z,99517.31
2023-03-05T06:35:17.470Z,99514.72
2023-03-05T06:36:21.640Z,99510.44
2023-03-05T06:37:24.004Z,99517.22
2023-03-05T06:38:26.294Z,99515.50
2023-03-05T06:39:30.198Z,99514.66
2023-03-05T06:40:32.553Z,99514.78
2023-03-05T06:41:34.961Z,99517.28
2023-03-05T06:42:37.221Z,99512.84
2023-03-05T06:43:41.809Z,99515.25
2023-03-05T06:44:44.620Z,99521.34
2023-03-05T06:45:48.466Z,99521.38
2023-03-05T06:46:50.622Z,99514.59
2023-03-05T06:47:53.086Z,99522.50
2023-03-05T06:48:57.388Z,99524.28
2023-03-05T06:49:59.591Z,99523.41
2023-03-05T06:51:01.844Z,99516.47
2023-03-05T06:52:05.710Z,99530.31
2023-03-05T06:53:08.359Z,99524.97
2023-03-05T06:54:15.556Z,99523.91
2023-03-05T06:55:18.708Z,99515.19
2023-03-05T06:56:21.857Z,99507.44
2023-03-05T06:57:24.143Z,99522.28
2023-03-05T06:58:26.382Z,99524.06
2023-03-05T06:59:28.658Z,99514.28
2023-03-05T07:00:31.083Z,99509.88
2023-03-05T07:01:33.830Z,99508.06
2023-03-05T07:02:40.562Z,99502.13
2023-03-05T07:03:43.639Z,99511.81
2023-03-05T07:04:46.866Z,99505.78
2023-03-05T07:05:49.131Z,99510.03
2023-03-05T07:06:51.427Z,99510.94
2023-03-05T07:07:53.681Z,99507.53
2023-03-05T07:08:57.085Z,99512.00
2023-03-05T07:09:59.598Z,99511.97
2023-03-05T07:11:02.038Z,99511.75
2023-03-05T07:12:04.533Z,99504.09
2023-03-05T07:13:07.341Z,99503.13
2023-03-05T07:14:09.811Z,99506.53
2023-03-05T07:15:12.650Z,99516.22
2023-03-05T07:16:17.762Z,99506.72
2023-03-05T07:17:20.051Z,99509.13
2023-03-05T07:18:22.259Z,99499.47
2023-03-05T07:19:24.489Z,99506.38
2023-03-05T07:20:26.731Z,99502.56
2023-03-05T07:21:31.676Z,99499.97
2023-03-05T07:22:33.910Z,99503.69
2023-03-05T07:23:36.725Z,99504.22
2023-03-05T07:24:39.008Z,99506.78
2023-03-05T07:25:41.478Z,99506.81
2023-03-05T07:26:43.879Z,99504.28
2023-03-05T07:27:46.111Z,99499.94
2023-03-05T07:28:48.638Z,99509.44
2023-03-05T07:29:51.154Z,99506.72
2023-03-05T07:30:58.161Z,99504.06
2023-03-05T07:32:00.439Z,99503.03
2023-03-05T07:33:02.772Z,99499.56
2023-03-05T07:34:06.419Z,99500.25
2023-03-05T07:35:09.432Z,99506.28
2023-03-05T07:36:12.656Z,99497.47
2023-03-05T07:37:15.318Z,99497.16
2023-03-05T07:38:17.748Z,99494.50
2023-03-05T07:39:20.113Z,99497.16
2023-03-05T07:40:22.461Z,99503.97
2023-03-05T07:41:24.791Z,99493.38
2023-03-05T07:42:27.077Z,99499.38
2023-03-05T07:43:45.810Z,99496.81
2023-03-05T07:44:48.189Z,99502.66
2023-03-05T07:45:50.410Z,99496.66
2023-03-05T07:46:52.630Z,99491.44
2023-03-05T07:47:56.124Z,99497.06
2023-03-05T07:48:58.846Z,99500.31
2023-03-05T07:50:01.550Z,99501.16
2023-03-05T07:51:06.173Z,99500.00
2023-03-05T07:52:09.482Z,99501.69
2023-03-05T07:53:12.056Z,99502.22
2023-03-05T07:54:14.312Z,99500.50
2023-03-05T07:55:16.653Z,99499.00
2023-03-05T07:56:31.885Z,99489.34
2023-03-05T07:57:35.423Z,99495.47
2023-03-05T07:58:37.777Z,99489.28
2023-03-05T07:59:40.202Z,99495.53
2023-03-05T08:00:42.457Z,99490.94
2023-03-05T08:01:46.255Z,99502.00
2023-03-05T08:02:50.101Z,99498.47
2023-03-05T08:03:52.419Z,99497.44
2023-03-05T08:04:54.920Z,99492.00
2023-03-05T08:05:57.143Z,99479.94
2023-03-05T08:07:00.048Z,99484.91
2023-03-05T08:08:02.324Z,99491.06
2023-03-05T08:09:04.534Z,99485.19
2023-03-05T08:10:07.533Z,99492.00
2023-03-05T08:11:11.990Z,99486.72
2023-03-05T08:12:14.201Z,99476.22
2023-03-05T08:13:16.565Z,99484.00
2023-03-05T08:14:18.854Z,99487.66
2023-03-05T08:15:21.122Z,99488.69
2023-03-05T08:16:25.899Z,99479.25
2023-03-05T08:17:28.120Z,99479.44
2023-03-05T08:18:30.501Z,99476.09
2023-03-05T08:19:33.367Z,99489.94
2023-03-05T08:20:36.498Z,99482.91
2023-03-05T08:21:38.894Z,99479.63
2023-03-05T08:22:41.102Z,99474.59
2023-03-05T08:23:44.048Z,99485.16
2023-03-05T08:24:46.392Z,99480.63
2023-03-05T08:25:48.706Z,99475.50
2023-03-05T08:26:50.957Z,99475.09
2023-03-05T08:27:53.128Z,99475.09
2023-03-05T08:28:55.608Z,99479.25
2023-03-05T08:29:57.888Z,99480.94
2023-03-05T08:31:00.202Z,99475.34
2023-03-05T08:32:02.571Z,99475.13
2023-03-05T08:33:04.898Z,99483.72
2023-03-05T08:34:07.481Z,99481.97
2023-03-05T08:35:09.921Z,99472.59
2023-03-05T08:36:13.308Z,99473.38
2023-03-05T08:37:16.162Z,99475.31
2023-03-05T08:38:20.943Z,99478.50
2023-03-05T08:39:23.366Z,99472.19
2023-03-05T08:40:26.158Z,99479.94
2023-03-05T08:41:28.491Z,99475.69
2023-03-05T08:42:30.781Z,99479.88
2023-03-05T08:43:33.323Z,99472.91
2023-03-05T08:44:35.750Z,99471.19
2023-03-05T08:45:39.961Z,99475.47
2023-03-05T08:46:42.311Z,99473.78
2023-03-05T08:47:44.798Z,99472.00
2023-03-05T08:48:47.043Z,99475.47
2023-03-05T08:49:49.388Z,99473.69
2023-03-05T08:50:51.931Z,99478.88
2023-03-05T08:51:54.216Z,99467.44
2023-03-05T08:52:57.056Z,99471.06
2023-03-05T08:54:00.233Z,99464.19
2023-03-05T08:55:02.839Z,99473.59
2023-03-05T08:56:05.549Z,99472.63
2023-03-05T08:57:08.395Z,99470.84
2023-03-05T08:58:10.599Z,99470.09
2023-03-05T08:59:13.776Z,99464.88
2023-03-05T09:00:17.091Z,99475.13
2023-03-05T09:01:19.606Z,99462.94
2023-03-05T09:02:21.933Z,99463.00
2023-03-05T09:03:24.284Z,99463.19
2023-03-05T09:04:26.731Z,99458.72
2023-03-05T09:05:29.190Z,99462.94
2023-03-05T09:06:31.504Z,99464.50
2023-03-05T09:07:33.724Z,99455.66
2023-03-05T09:08:36.233Z,99460.06
2023-03-05T09:09:38.482Z,99463.53
2023-03-05T09:10:44.806Z,99456.38
2023-03-05T09:11:47.550Z,99456.88
2023-03-05T09:12:49.879Z,99460.91
2023-03-05T09:13:53.531Z,99460.75
2023-03-05T09:14:56.388Z,99457.19
2023-03-05T09:16:01.990Z,99459.13
2023-03-05T09:17:04.243Z,99457.66
2023-03-05T09:18:08.933Z,99454.00
2023-03-05T09:19:12.760Z,99449.63
2023-03-05T09:20:16.829Z,99457.91
2023-03-05T09:21:19.206Z,99449.03
2023-03-05T09:22:21.502Z,99456.59
2023-03-05T09:23:25.088Z,99453.09
2023-03-05T09:24:27.871Z,99452.06
2023-03-05T09:25:30.140Z,99451.84
2023-03-05T09:26:32.655Z,99442.44
2023-03-05T09:27:36.385Z,99450.41
2023-03-05T09:28:39.610Z,99442.53
2023-03-05T09:29:43.248Z,99443.66
2023-03-05T09:30:45.902Z,99444.28
2023-03-05T09:31:51.537Z,99448.91
2023-03-05T09:32:53.861Z,99437.22
2023-03-05T09:33:56.141Z,99438.03
2023-03-05T09:34:58.986Z,99435.91
2023-03-05T09:36:02.032Z,99439.22
2023-03-05T09:37:04.367Z,99438.31
2023-03-05T09:38:06.685Z,99431.94
2023-03-05T09:39:08.933Z,99425.25
2023-03-05T09:40:21.699Z,99436.84
2023-03-05T09:41:45.501Z,99430.53
2023-03-05T09:43:03.518Z,99432.13
2023-03-05T09:44:36.029Z,99432.56
2023-03-05T09:45:41.438Z,99426.34
2023-03-05T09:47:09.933Z,99421.47
2023-03-05T09:48:21.355Z,99430.91
2023-03-05T09:49:59.989Z,99433.97
2023-03-05T09:51:04.285Z,99421.88
2023-03-05T09:52:22.150Z,99429.00
2023-03-05T09:53:42.798Z,99426.44
2023-03-05T09:54:49.587Z,99427.91
2023-03-05T09:55:58.187Z,99433.56
2023-03-05T09:57:04.374Z,99428.00
2023-03-05T09:58:34.159Z,99424.19
2023-03-05T09:59:56.090Z,99425.94
2023-03-05T10:01:02.498Z,99420.59
2023-03-05T10:02:23.179Z,99417.38
2023-03-05T10:03:30.536Z,99419.03
2023-03-05T10:05:17.016Z,99407.41
2023-03-05T10:06:29.082Z,99410.38
2023-03-05T10:07:36.349Z,99414.13
2023-03-05T10:08:48.620Z,99411.41
2023-03-05T10:09:56.996Z,99418.13
2023-03-05T10:11:07.430Z,99405.59
2023-03-05T10:12:20.859Z,99407.59
2023-03-05T10:13:36.910Z,99414.59
2023-03-05T10:14:40.760Z,99413.38
2023-03-05T10:15:53.717Z,99412.94
2023-03-05T10:17:25.428Z,99407.59
2023-03-05T10:18:37.167Z,99404.56
2023-03-05T10:20:07.214Z,99406.88
2023-03-05T10:21:31.216Z,99408.06
2023-03-05T10:22:55.499Z,99407.19
2023-03-05T10:24:13.412Z,99412.06
2023-03-05T10:25:33.915Z,99403.44
2023-03-05T10:26:52.368Z,99403.56
2023-03-05T10:28:07.779Z,99407.84
2023-03-05T10:29:39.371Z,99404.19
2023-03-05T10:30:58.090Z,99410.56
2023-03-05T10:32:29.382Z,99399.56
2023-03-05T10:33:54.729Z,99405.47
2023-03-05T10:35:12.098Z,99408.44
2023-03-05T10:36:25.955Z,99405.34
2023-03-05T10:37:56.439Z,99406.91
2023-03-05T10:39:29.423Z,99399.13
2023-03-05T10:40:54.497Z,99391.06
2023-03-05T10:42:31.033Z,99399.44
2023-03-05T10:43:42.040Z,99390.25
2023-03-05T10:44:54.936Z,99381.38
2023-03-05T10:45:58.225Z,99393.72
2023-03-05T10:47:02.836Z,99398.19
2023-03-05T10:48:14.278Z,99397.06
2023-03-05T10:49:24.660Z,99394.59
2023-03-05T10:50:33.662Z,99398.09
2023-03-05T10:51:47.585Z,99396.00
2023-03-05T10:53:02.240Z,99387.78
2023-03-05T10:54:29.548Z,99386.41
2023-03-05T10:55:32.205Z,99387.59
2023-03-05T10:56:34.517Z,99387.06
2023-03-05T10:57:36.746Z,99381.16
2023-03-05T10:58:38.923Z,99382.94
2023-03-05T11:00:06.853Z,99375.63
2023-03-05T11:01:12.270Z,99376.91
2023-03-05T11:02:14.896Z,99369.94
2023-03-05T11:03:17.174Z,99374.31
2023-03-05T11:04:32.128Z,99366.13
2023-03-05T11:05:50.958Z,99366.03
2023-03-05T11:06:53.267Z,99367.88
2023-03-05T11:07:55.487Z,99362.97
2023-03-05T11:09:18.093Z,99360.06
2023-03-05T11:10:21.554Z,99358.81
2023-03-05T11:11:23.898Z,99360.50
2023-03-05T11:12:37.221Z,99354.59
2023-03-05T11:14:00.887Z,99357.66
2023-03-05T11:15:14.917Z,99341.06
2023-03-05T11:16:21.705Z,99349.38
2023-03-05T11:17:24.193Z,99353.22
2023-03-05T11:18:26.694Z,99342.59
2023-03-05T11:19:32.971Z,99351.38
2023-03-05T11:20:36.319Z,99341.16
2023-03-05T11:21:38.579Z,99342.59
2023-03-05T11:22:40.972Z,99345.91
2023-03-05T11:23:43.517Z,99333.72
2023-03-05T11:25:06.216Z,99336.75
2023-03-05T11:26:14.096Z,99340.25
2023-03-05T11:27:35.924Z,99339.19
2023-03-05T11:28:41.130Z,99333.91
2023-03-05T11:29:49.347Z,99345.09
2023-03-05T11:31:07.344Z,99332.56
2023-03-05T11:32:21.232Z,99341.34
2023-03-05T11:33:24.462Z,99338.88
2023-03-05T11:34:35.099Z,99338.00
2023-03-05T11:35:41.977Z,99338.94
2023-03-05T11:37:03.736Z,99342.41
2023-03-05T11:38:26.019Z,99343.13
2023-03-05T11:39:30.366Z,99331.72
2023-03-05T11:40:37.293Z,99340.63
2023-03-05T11:42:04.362Z,99337.47
2023-03-05T11:43:06.523Z,99335.50
2023-03-05T11:44:20.770Z,99330.88
2023-03-05T11:45:25.801Z,99333.38
2023-03-05T11:46:28.704Z,99329.75
2023-03-05T11:47:47.729Z,99330.66
2023-03-05T11:48:50.418Z,99324.34
2023-03-05T11:50:00.271Z,99327.16
2023-03-05T11:51:13.621Z,99323.94
2023-03-05T11:52:22.813Z,99323.94
2023-03-05T11:53:36.799Z,99330.47
2023-03-05T11:55:23.983Z,99324.41
2023-03-05T11:56:36.797Z,99326.81
2023-03-05T11:58:07.786Z,99316.13
2023-03-05T11:59:26.817Z,99325.97
2023-03-05T12:00:31.673Z,99322.78
2023-03-05T12:01:43.331Z,99328.56
2023-03-05T12:02:52.224Z,99317.81
2023-03-05T12:03:55.522Z,99316.34
2023-03-05T12:04:59.931Z,99313.53
2023-03-05T12:06:13.998Z,99316.78
2023-03-05T12:07:41.817Z,99312.25
2023-03-05T12:08:51.147Z,99310.69
2023-03-05T12:09:54.178Z,99314.41
2023-03-05T12:10:59.286Z,99312.75
2023-03-05T12:12:06.348Z,99311.97
2023-03-05T12:13:15.317Z,99307.72
2023-03-05T12:14:28.742Z,99299.00
2023-03-05T12:16:01.072Z,99305.19
2023-03-05T12:17:42.261Z,99295.41
2023-03-05T12:19:07.017Z,99296.84
2023-03-05T12:20:22.551Z,99293.13
2023-03-05T12:21:38.255Z,99289.06
2023-03-05T12:22:42.040Z,99294.97
2023-03-05T12:24:01.729Z,99283.66
2023-03-05T12:25:34.932Z,99290.50
2023-03-05T12:27:04.571Z,99282.75
2023-03-05T12:28:15.091Z,99290.69
2023-03-05T12:29:43.869Z,99281.19
2023-03-05T12:30:46.056Z,99276.56
2023-03-05T12:31:48.966Z,99276.56
2023-03-05T12:32:52.688Z,99274.00
2023-03-05T12:33:54.943Z,99272.06
2023-03-05T12:35:24.572Z,99268.22
2023-03-05T12:36:34.793Z,99272.81
2023-03-05T12:37:51.965Z,99269.84
2023-03-05T12:38:57.465Z,99259.78
2023-03-05T12:40:07.943Z,99242.13
2023-03-05T12:41:22.154Z,99254.94
2023-03-05T12:42:30.393Z,99245.03
2023-03-05T12:43:33.972Z,99249.47
2023-03-05T12:44:36.196Z,99238.03
2023-03-05T12:45:40.908Z,99248.16
2023-03-05T12:46:44.784Z,99247.03
2023-03-05T12:47:53.719Z,99236.63
2023-03-05T12:48:55.996Z,99238.47
2023-03-05T12:50:00.981Z,99243.00
2023-03-05T12:51:03.832Z,99244.72